Southlake's Hourly Summary for Monday, May 14, 2018
Hour Temp
(f)
RH
(%)
Solar Rad.
(MJ/m2)
Rainfall
(in)
Wind
(mph)
5/14/2018 12:00 AM 79 68 0 0 4.1
5/14/2018 1:00 AM 79 70 0 0 5.2
5/14/2018 2:00 AM 78 73 0 0 6.6
5/14/2018 3:00 AM 76 78 0 0 6.15
5/14/2018 4:00 AM 75 82 0 0 5.48
5/14/2018 5:00 AM 74 85 0 0 5.48
5/14/2018 6:00 AM 73 88 0.01 0 5.76
5/14/2018 7:00 AM 73 86 0.3 0 5.59
5/14/2018 8:00 AM 75 83 0.88 0 6.99
5/14/2018 9:00 AM 77 77 1.38 0 8.39
5/14/2018 10:00 AM 80 69 2.39 0 10.23
5/14/2018 11:00 AM 82 64 2.34 0 8.78
5/14/2018 12:00 PM 84 60 2.96 0 7.88
5/14/2018 1:00 PM 86 56 3.13 0 8.84
5/14/2018 2:00 PM 87 54 2.88 0 8.61
5/14/2018 3:00 PM 88 53 2.63 0 8.11
5/14/2018 4:00 PM 87 54 1.41 0 6.76
5/14/2018 5:00 PM 87 53 1.15 0 6.93
5/14/2018 6:00 PM 88 52 1.1 0 7.44
5/14/2018 7:00 PM 85 55 0.17 0 6.77
5/14/2018 8:00 PM 84 57 0.02 0 6.04
5/14/2018 9:00 PM 83 59 0 0 6.32
5/14/2018 10:00 PM 81 62 0 0 5.31
5/14/2018 11:00 PM 80 66 0 0 4.47
Data Summary 80 66 22.75 0.00 6.76